sensor_id;sensor_type;location;lat;lon;timestamp;P1;durP1;ratioP1;P2;durP2;ratioP2
59790;SDS011;47431;51.640;5.554;2022-08-19T00:01:27;31.88;;;27.77;;
59790;SDS011;47431;51.640;5.554;2022-08-19T00:03:54;31.63;;;28.17;;
59790;SDS011;47431;51.640;5.554;2022-08-19T00:06:19;31.42;;;28.08;;
59790;SDS011;47431;51.640;5.554;2022-08-19T00:08:44;35.13;;;27.33;;
59790;SDS011;47431;51.640;5.554;2022-08-19T00:11:10;30.98;;;26.95;;
59790;SDS011;47431;51.640;5.554;2022-08-19T00:13:35;28.88;;;25.88;;
59790;SDS011;47431;51.640;5.554;2022-08-19T00:16:01;31.25;;;27.95;;
59790;SDS011;47431;51.640;5.554;2022-08-19T00:18:27;29.50;;;26.40;;
59790;SDS011;47431;51.640;5.554;2022-08-19T00:20:52;29.98;;;25.83;;
59790;SDS011;47431;51.640;5.554;2022-08-19T00:23:17;28.45;;;25.35;;
59790;SDS011;47431;51.640;5.554;2022-08-19T00:25:43;29.80;;;26.60;;
59790;SDS011;47431;51.640;5.554;2022-08-19T00:28:08;31.70;;;28.45;;
59790;SDS011;47431;51.640;5.554;2022-08-19T00:30:34;31.73;;;28.40;;
59790;SDS011;47431;51.640;5.554;2022-08-19T00:32:59;30.45;;;26.58;;
59790;SDS011;47431;51.640;5.554;2022-08-19T00:35:25;31.77;;;28.27;;
59790;SDS011;47431;51.640;5.554;2022-08-19T00:37:52;32.13;;;27.13;;
59790;SDS011;47431;51.640;5.554;2022-08-19T00:40:17;31.80;;;27.77;;
59790;SDS011;47431;51.640;5.554;2022-08-19T00:42:44;31.05;;;25.90;;
59790;SDS011;47431;51.640;5.554;2022-08-19T00:45:15;30.13;;;26.52;;
59790;SDS011;47431;51.640;5.554;2022-08-19T00:47:41;34.20;;;28.02;;
59790;SDS011;47431;51.640;5.554;2022-08-19T00:50:07;34.00;;;28.10;;
59790;SDS011;47431;51.640;5.554;2022-08-19T00:52:33;36.60;;;28.63;;
59790;SDS011;47431;51.640;5.554;2022-08-19T00:54:59;29.65;;;21.60;;
59790;SDS011;47431;51.640;5.554;2022-08-19T00:57:45;22.63;;;20.23;;
59790;SDS011;47431;51.640;5.554;2022-08-19T01:00:13;33.97;;;17.85;;
59790;SDS011;47431;51.640;5.554;2022-08-19T01:02:39;28.30;;;17.30;;
59790;SDS011;47431;51.640;5.554;2022-08-19T01:05:06;77.47;;;20.90;;
59790;SDS011;47431;51.640;5.554;2022-08-19T01:07:33;25.20;;;18.42;;
59790;SDS011;47431;51.640;5.554;2022-08-19T01:09:59;21.45;;;16.95;;
59790;SDS011;47431;51.640;5.554;2022-08-19T01:12:24;18.77;;;16.88;;
59790;SDS011;47431;51.640;5.554;2022-08-19T01:14:50;21.75;;;17.85;;
59790;SDS011;47431;51.640;5.554;2022-08-19T01:17:16;27.95;;;21.98;;
59790;SDS011;47431;51.640;5.554;2022-08-19T01:19:41;28.17;;;22.00;;
59790;SDS011;47431;51.640;5.554;2022-08-19T01:22:26;26.98;;;24.08;;
59790;SDS011;47431;51.640;5.554;2022-08-19T01:24:51;27.65;;;24.05;;
59790;SDS011;47431;51.640;5.554;2022-08-19T01:27:17;21.90;;;19.45;;
59790;SDS011;47431;51.640;5.554;2022-08-19T01:29:42;23.92;;;20.02;;
59790;SDS011;47431;51.640;5.554;2022-08-19T01:32:11;26.88;;;23.10;;
59790;SDS011;47431;51.640;5.554;2022-08-19T01:34:36;27.92;;;24.85;;
59790;SDS011;47431;51.640;5.554;2022-08-19T01:37:05;30.90;;;27.67;;
59790;SDS011;47431;51.640;5.554;2022-08-19T01:39:31;29.15;;;25.52;;
59790;SDS011;47431;51.640;5.554;2022-08-19T01:41:56;31.40;;;26.30;;
59790;SDS011;47431;51.640;5.554;2022-08-19T01:44:22;35.88;;;25.55;;
59790;SDS011;47431;51.640;5.554;2022-08-19T01:46:49;40.08;;;24.48;;
59790;SDS011;47431;51.640;5.554;2022-08-19T01:49:15;32.42;;;24.27;;
59790;SDS011;47431;51.640;5.554;2022-08-19T01:51:40;28.67;;;25.58;;
59790;SDS011;47431;51.640;5.554;2022-08-19T01:54:09;31.58;;;26.40;;
59790;SDS011;47431;51.640;5.554;2022-08-19T01:56:34;32.72;;;27.10;;
59790;SDS011;47431;51.640;5.554;2022-08-19T01:59:01;33.58;;;26.40;;
59790;SDS011;47431;51.640;5.554;2022-08-19T02:01:26;37.28;;;28.40;;
59790;SDS011;47431;51.640;5.554;2022-08-19T02:03:51;36.35;;;26.83;;
59790;SDS011;47431;51.640;5.554;2022-08-19T02:06:19;305.17;;;30.20;;
59790;SDS011;47431;51.640;5.554;2022-08-19T02:08:44;289.67;;;19.42;;
59790;SDS011;47431;51.640;5.554;2022-08-19T02:11:17;73.22;;;18.00;;
59790;SDS011;47431;51.640;5.554;2022-08-19T02:13:42;135.70;;;26.95;;
59790;SDS011;47431;51.640;5.554;2022-08-19T02:16:08;195.73;;;27.73;;
59790;SDS011;47431;51.640;5.554;2022-08-19T02:18:33;26.17;;;21.00;;
59790;SDS011;47431;51.640;5.554;2022-08-19T02:20:58;43.20;;;18.38;;
59790;SDS011;47431;51.640;5.554;2022-08-19T02:23:23;26.92;;;19.33;;
59790;SDS011;47431;51.640;5.554;2022-08-19T02:25:49;74.18;;;24.17;;
59790;SDS011;47431;51.640;5.554;2022-08-19T02:28:16;29.45;;;21.48;;
59790;SDS011;47431;51.640;5.554;2022-08-19T02:30:41;34.78;;;24.02;;
59790;SDS011;47431;51.640;5.554;2022-08-19T02:33:06;34.03;;;24.80;;
59790;SDS011;47431;51.640;5.554;2022-08-19T02:35:32;29.77;;;24.25;;
59790;SDS011;47431;51.640;5.554;2022-08-19T02:37:57;33.60;;;25.13;;
59790;SDS011;47431;51.640;5.554;2022-08-19T02:40:47;35.60;;;26.75;;
59790;SDS011;47431;51.640;5.554;2022-08-19T02:43:14;36.08;;;27.60;;
59790;SDS011;47431;51.640;5.554;2022-08-19T02:45:40;41.60;;;25.88;;
59790;SDS011;47431;51.640;5.554;2022-08-19T02:48:05;41.05;;;29.70;;
59790;SDS011;47431;51.640;5.554;2022-08-19T02:50:31;38.28;;;28.83;;
59790;SDS011;47431;51.640;5.554;2022-08-19T02:52:56;42.22;;;26.85;;
59790;SDS011;47431;51.640;5.554;2022-08-19T02:55:22;45.35;;;30.08;;
59790;SDS011;47431;51.640;5.554;2022-08-19T02:57:47;39.35;;;26.92;;
59790;SDS011;47431;51.640;5.554;2022-08-19T03:00:13;46.95;;;30.85;;
59790;SDS011;47431;51.640;5.554;2022-08-19T03:02:39;40.25;;;28.60;;
59790;SDS011;47431;51.640;5.554;2022-08-19T03:05:04;38.42;;;30.33;;
59790;SDS011;47431;51.640;5.554;2022-08-19T03:07:30;43.22;;;31.55;;
59790;SDS011;47431;51.640;5.554;2022-08-19T03:09:55;38.88;;;28.70;;
59790;SDS011;47431;51.640;5.554;2022-08-19T03:12:20;40.05;;;30.17;;
59790;SDS011;47431;51.640;5.554;2022-08-19T03:14:46;42.72;;;30.70;;
59790;SDS011;47431;51.640;5.554;2022-08-19T03:17:11;41.40;;;30.38;;
59790;SDS011;47431;51.640;5.554;2022-08-19T03:19:37;43.40;;;29.30;;
59790;SDS011;47431;51.640;5.554;2022-08-19T03:22:03;148.23;;;31.83;;
59790;SDS011;47431;51.640;5.554;2022-08-19T03:24:29;167.95;;;23.88;;
59790;SDS011;47431;51.640;5.554;2022-08-19T03:26:55;27.98;;;18.90;;
59790;SDS011;47431;51.640;5.554;2022-08-19T03:29:23;37.42;;;18.42;;
59790;SDS011;47431;51.640;5.554;2022-08-19T03:31:48;28.92;;;23.05;;
59790;SDS011;47431;51.640;5.554;2022-08-19T03:34:23;32.35;;;23.30;;
59790;SDS011;47431;51.640;5.554;2022-08-19T03:36:51;30.13;;;24.38;;
59790;SDS011;47431;51.640;5.554;2022-08-19T03:39:16;35.38;;;27.50;;
59790;SDS011;47431;51.640;5.554;2022-08-19T03:41:43;153.48;;;19.67;;
59790;SDS011;47431;51.640;5.554;2022-08-19T03:44:08;28.10;;;20.13;;
59790;SDS011;47431;51.640;5.554;2022-08-19T03:46:34;115.80;;;26.52;;
59790;SDS011;47431;51.640;5.554;2022-08-19T03:49:00;359.63;;;37.35;;
59790;SDS011;47431;51.640;5.554;2022-08-19T03:51:27;434.98;;;34.47;;
59790;SDS011;47431;51.640;5.554;2022-08-19T03:53:53;70.43;;;17.77;;
59790;SDS011;47431;51.640;5.554;2022-08-19T03:56:19;28.05;;;18.70;;
59790;SDS011;47431;51.640;5.554;2022-08-19T03:58:45;40.65;;;24.90;;
59790;SDS011;47431;51.640;5.554;2022-08-19T04:01:13;42.72;;;26.55;;
59790;SDS011;47431;51.640;5.554;2022-08-19T04:03:39;33.63;;;23.67;;
59790;SDS011;47431;51.640;5.554;2022-08-19T04:06:15;34.78;;;24.45;;
59790;SDS011;47431;51.640;5.554;2022-08-19T04:08:41;33.40;;;25.38;;
59790;SDS011;47431;51.640;5.554;2022-08-19T04:11:10;35.40;;;21.92;;
59790;SDS011;47431;51.640;5.554;2022-08-19T04:13:36;165.63;;;17.13;;
59790;SDS011;47431;51.640;5.554;2022-08-19T04:16:01;17.92;;;13.82;;
59790;SDS011;47431;51.640;5.554;2022-08-19T04:18:26;107.47;;;20.33;;
59790;SDS011;47431;51.640;5.554;2022-08-19T04:20:54;228.73;;;27.52;;
59790;SDS011;47431;51.640;5.554;2022-08-19T04:23:19;106.88;;;23.52;;
59790;SDS011;47431;51.640;5.554;2022-08-19T04:25:45;67.15;;;20.88;;
59790;SDS011;47431;51.640;5.554;2022-08-19T04:28:11;306.77;;;34.55;;
59790;SDS011;47431;51.640;5.554;2022-08-19T04:30:37;34.40;;;26.25;;
59790;SDS011;47431;51.640;5.554;2022-08-19T04:33:02;41.63;;;30.20;;
59790;SDS011;47431;51.640;5.554;2022-08-19T04:35:34;32.05;;;25.38;;
59790;SDS011;47431;51.640;5.554;2022-08-19T04:37:59;45.35;;;31.27;;
59790;SDS011;47431;51.640;5.554;2022-08-19T04:40:24;36.40;;;26.98;;
59790;SDS011;47431;51.640;5.554;2022-08-19T04:43:13;37.58;;;28.88;;
59790;SDS011;47431;51.640;5.554;2022-08-19T04:45:39;33.58;;;25.40;;
59790;SDS011;47431;51.640;5.554;2022-08-19T04:48:05;40.30;;;26.58;;
59790;SDS011;47431;51.640;5.554;2022-08-19T04:50:30;45.50;;;29.15;;
59790;SDS011;47431;51.640;5.554;2022-08-19T04:52:55;47.15;;;32.97;;
59790;SDS011;47431;51.640;5.554;2022-08-19T04:55:21;397.45;;;30.90;;
59790;SDS011;47431;51.640;5.554;2022-08-19T04:57:46;337.67;;;30.67;;
59790;SDS011;47431;51.640;5.554;2022-08-19T05:00:11;360.33;;;30.13;;
59790;SDS011;47431;51.640;5.554;2022-08-19T05:02:37;383.55;;;31.40;;
59790;SDS011;47431;51.640;5.554;2022-08-19T05:05:03;276.65;;;29.00;;
59790;SDS011;47431;51.640;5.554;2022-08-19T05:07:28;26.83;;;20.55;;
59790;SDS011;47431;51.640;5.554;2022-08-19T05:09:54;29.65;;;22.10;;
59790;SDS011;47431;51.640;5.554;2022-08-19T05:12:20;32.30;;;23.00;;
59790;SDS011;47431;51.640;5.554;2022-08-19T05:14:45;31.83;;;22.15;;
59790;SDS011;47431;51.640;5.554;2022-08-19T05:17:12;33.00;;;23.77;;
59790;SDS011;47431;51.640;5.554;2022-08-19T05:19:37;33.88;;;25.98;;
59790;SDS011;47431;51.640;5.554;2022-08-19T05:22:21;32.47;;;25.27;;
59790;SDS011;47431;51.640;5.554;2022-08-19T05:25:09;33.15;;;22.00;;
59790;SDS011;47431;51.640;5.554;2022-08-19T05:27:34;24.35;;;19.90;;
59790;SDS011;47431;51.640;5.554;2022-08-19T05:30:00;33.03;;;24.05;;
59790;SDS011;47431;51.640;5.554;2022-08-19T05:32:25;33.05;;;23.80;;
59790;SDS011;47431;51.640;5.554;2022-08-19T05:34:50;49.92;;;34.67;;
59790;SDS011;47431;51.640;5.554;2022-08-19T05:37:15;46.58;;;32.13;;
59790;SDS011;47431;51.640;5.554;2022-08-19T05:39:41;56.05;;;35.75;;
59790;SDS011;47431;51.640;5.554;2022-08-19T05:42:08;56.80;;;41.53;;
59790;SDS011;47431;51.640;5.554;2022-08-19T05:44:35;72.45;;;46.38;;
59790;SDS011;47431;51.640;5.554;2022-08-19T05:47:01;103.07;;;62.42;;
59790;SDS011;47431;51.640;5.554;2022-08-19T05:49:28;122.10;;;69.50;;
59790;SDS011;47431;51.640;5.554;2022-08-19T05:51:53;152.20;;;72.40;;
59790;SDS011;47431;51.640;5.554;2022-08-19T05:54:20;127.07;;;69.63;;
59790;SDS011;47431;51.640;5.554;2022-08-19T05:56:48;127.65;;;71.25;;
59790;SDS011;47431;51.640;5.554;2022-08-19T05:59:14;119.28;;;66.50;;
59790;SDS011;47431;51.640;5.554;2022-08-19T06:01:40;106.38;;;64.10;;
59790;SDS011;47431;51.640;5.554;2022-08-19T06:04:05;105.57;;;64.32;;
59790;SDS011;47431;51.640;5.554;2022-08-19T06:06:31;109.75;;;65.00;;
59790;SDS011;47431;51.640;5.554;2022-08-19T06:08:58;102.32;;;63.38;;
59790;SDS011;47431;51.640;5.554;2022-08-19T06:12:09;108.15;;;63.30;;
59790;SDS011;47431;51.640;5.554;2022-08-19T06:14:10;108.63;;;64.18;;
59790;SDS011;47431;51.640;5.554;2022-08-19T06:16:37;108.25;;;63.55;;
59790;SDS011;47431;51.640;5.554;2022-08-19T06:19:04;100.75;;;64.70;;
59790;SDS011;47431;51.640;5.554;2022-08-19T06:21:31;102.97;;;61.15;;
59790;SDS011;47431;51.640;5.554;2022-08-19T06:23:57;94.13;;;59.70;;
59790;SDS011;47431;51.640;5.554;2022-08-19T06:26:23;100.40;;;63.22;;
59790;SDS011;47431;51.640;5.554;2022-08-19T06:28:49;94.40;;;61.22;;
59790;SDS011;47431;51.640;5.554;2022-08-19T06:31:19;97.82;;;63.45;;
59790;SDS011;47431;51.640;5.554;2022-08-19T06:33:45;114.32;;;62.38;;
59790;SDS011;47431;51.640;5.554;2022-08-19T06:36:17;119.50;;;61.60;;
59790;SDS011;47431;51.640;5.554;2022-08-19T06:38:43;117.78;;;62.67;;
59790;SDS011;47431;51.640;5.554;2022-08-19T06:41:08;98.07;;;58.00;;
59790;SDS011;47431;51.640;5.554;2022-08-19T06:43:34;94.82;;;57.60;;
59790;SDS011;47431;51.640;5.554;2022-08-19T06:46:00;97.03;;;56.78;;
59790;SDS011;47431;51.640;5.554;2022-08-19T06:48:26;98.18;;;57.83;;
59790;SDS011;47431;51.640;5.554;2022-08-19T06:51:04;79.88;;;55.83;;
59790;SDS011;47431;51.640;5.554;2022-08-19T06:53:31;96.88;;;57.90;;
59790;SDS011;47431;51.640;5.554;2022-08-19T06:55:56;100.07;;;55.58;;
59790;SDS011;47431;51.640;5.554;2022-08-19T06:58:25;83.40;;;52.15;;
59790;SDS011;47431;51.640;5.554;2022-08-19T07:00:50;78.97;;;49.42;;
59790;SDS011;47431;51.640;5.554;2022-08-19T07:03:16;90.38;;;53.28;;
59790;SDS011;47431;51.640;5.554;2022-08-19T07:05:41;85.57;;;51.53;;
59790;SDS011;47431;51.640;5.554;2022-08-19T07:08:06;81.05;;;51.58;;
59790;SDS011;47431;51.640;5.554;2022-08-19T07:10:32;74.95;;;48.67;;
59790;SDS011;47431;51.640;5.554;2022-08-19T07:12:59;126.30;;;51.05;;
59790;SDS011;47431;51.640;5.554;2022-08-19T07:15:25;80.82;;;49.88;;
59790;SDS011;47431;51.640;5.554;2022-08-19T07:17:50;95.20;;;48.80;;
59790;SDS011;47431;51.640;5.554;2022-08-19T07:20:16;71.32;;;46.13;;
59790;SDS011;47431;51.640;5.554;2022-08-19T07:22:41;74.25;;;45.95;;
59790;SDS011;47431;51.640;5.554;2022-08-19T07:25:08;68.68;;;45.72;;
59790;SDS011;47431;51.640;5.554;2022-08-19T07:27:34;62.80;;;45.53;;
59790;SDS011;47431;51.640;5.554;2022-08-19T07:29:59;63.10;;;47.33;;
59790;SDS011;47431;51.640;5.554;2022-08-19T07:32:25;82.97;;;50.05;;
59790;SDS011;47431;51.640;5.554;2022-08-19T07:34:53;72.55;;;49.83;;
59790;SDS011;47431;51.640;5.554;2022-08-19T07:37:19;78.18;;;48.30;;
59790;SDS011;47431;51.640;5.554;2022-08-19T07:39:44;74.18;;;50.15;;
59790;SDS011;47431;51.640;5.554;2022-08-19T07:42:09;67.38;;;48.78;;
59790;SDS011;47431;51.640;5.554;2022-08-19T07:44:35;67.65;;;47.67;;
59790;SDS011;47431;51.640;5.554;2022-08-19T07:47:00;86.53;;;49.85;;
59790;SDS011;47431;51.640;5.554;2022-08-19T07:49:26;66.80;;;50.90;;
59790;SDS011;47431;51.640;5.554;2022-08-19T07:51:52;71.03;;;51.67;;
59790;SDS011;47431;51.640;5.554;2022-08-19T07:54:18;73.78;;;47.90;;
59790;SDS011;47431;51.640;5.554;2022-08-19T07:56:44;78.05;;;49.60;;
59790;SDS011;47431;51.640;5.554;2022-08-19T07:59:10;76.80;;;47.50;;
59790;SDS011;47431;51.640;5.554;2022-08-19T08:01:37;69.75;;;50.10;;
59790;SDS011;47431;51.640;5.554;2022-08-19T08:04:02;77.22;;;49.33;;
59790;SDS011;47431;51.640;5.554;2022-08-19T08:06:46;65.90;;;50.20;;
59790;SDS011;47431;51.640;5.554;2022-08-19T08:09:35;62.92;;;44.88;;
59790;SDS011;47431;51.640;5.554;2022-08-19T08:12:35;66.00;;;43.97;;
59790;SDS011;47431;51.640;5.554;2022-08-19T08:14:54;70.78;;;48.15;;
59790;SDS011;47431;51.640;5.554;2022-08-19T08:17:20;117.72;;;48.58;;
59790;SDS011;47431;51.640;5.554;2022-08-19T08:19:46;98.88;;;46.88;;
59790;SDS011;47431;51.640;5.554;2022-08-19T08:22:14;76.47;;;41.30;;
59790;SDS011;47431;51.640;5.554;2022-08-19T08:25:00;55.00;;;40.13;;
59790;SDS011;47431;51.640;5.554;2022-08-19T08:27:25;62.25;;;40.28;;
59790;SDS011;47431;51.640;5.554;2022-08-19T08:29:54;58.50;;;39.67;;
59790;SDS011;47431;51.640;5.554;2022-08-19T08:32:19;74.33;;;39.17;;
59790;SDS011;47431;51.640;5.554;2022-08-19T08:34:44;76.77;;;41.40;;
59790;SDS011;47431;51.640;5.554;2022-08-19T08:37:10;75.65;;;38.70;;
59790;SDS011;47431;51.640;5.554;2022-08-19T08:39:35;80.13;;;41.00;;
59790;SDS011;47431;51.640;5.554;2022-08-19T08:42:08;81.23;;;39.67;;
59790;SDS011;47431;51.640;5.554;2022-08-19T08:47:04;60.07;;;37.60;;
59790;SDS011;47431;51.640;5.554;2022-08-19T08:49:45;48.72;;;35.97;;
59790;SDS011;47431;51.640;5.554;2022-08-19T08:52:18;81.60;;;39.40;;
59790;SDS011;47431;51.640;5.554;2022-08-19T08:54:47;52.55;;;39.00;;
59790;SDS011;47431;51.640;5.554;2022-08-19T08:59:58;69.50;;;39.70;;
59790;SDS011;47431;51.640;5.554;2022-08-19T09:02:25;57.47;;;39.90;;
59790;SDS011;47431;51.640;5.554;2022-08-19T09:04:51;51.17;;;37.85;;
59790;SDS011;47431;51.640;5.554;2022-08-19T09:12:54;62.63;;;41.42;;
59790;SDS011;47431;51.640;5.554;2022-08-19T09:15:25;99.28;;;42.25;;
59790;SDS011;47431;51.640;5.554;2022-08-19T09:17:52;64.70;;;40.45;;
59790;SDS011;47431;51.640;5.554;2022-08-19T09:20:19;57.53;;;40.97;;
59790;SDS011;47431;51.640;5.554;2022-08-19T09:22:44;50.38;;;35.75;;
59790;SDS011;47431;51.640;5.554;2022-08-19T09:25:11;72.00;;;38.58;;
59790;SDS011;47431;51.640;5.554;2022-08-19T09:27:37;93.13;;;39.10;;
59790;SDS011;47431;51.640;5.554;2022-08-19T09:30:03;77.20;;;38.25;;
59790;SDS011;47431;51.640;5.554;2022-08-19T09:32:29;117.35;;;43.95;;
59790;SDS011;47431;51.640;5.554;2022-08-19T09:34:55;93.35;;;40.38;;
59790;SDS011;47431;51.640;5.554;2022-08-19T09:37:22;50.85;;;37.70;;
59790;SDS011;47431;51.640;5.554;2022-08-19T09:39:49;67.47;;;40.35;;
59790;SDS011;47431;51.640;5.554;2022-08-19T09:42:14;78.05;;;37.72;;
59790;SDS011;47431;51.640;5.554;2022-08-19T09:44:40;51.25;;;40.05;;
59790;SDS011;47431;51.640;5.554;2022-08-19T09:47:05;49.38;;;39.92;;
59790;SDS011;47431;51.640;5.554;2022-08-19T09:49:30;48.70;;;41.03;;
59790;SDS011;47431;51.640;5.554;2022-08-19T09:51:56;91.18;;;42.75;;
59790;SDS011;47431;51.640;5.554;2022-08-19T09:54:21;49.22;;;39.67;;
59790;SDS011;47431;51.640;5.554;2022-08-19T09:56:46;54.97;;;39.97;;
59790;SDS011;47431;51.640;5.554;2022-08-19T09:59:11;48.50;;;37.93;;
59790;SDS011;47431;51.640;5.554;2022-08-19T10:01:37;50.28;;;39.88;;
59790;SDS011;47431;51.640;5.554;2022-08-19T10:04:02;60.22;;;41.33;;
59790;SDS011;47431;51.640;5.554;2022-08-19T10:06:33;41.20;;;36.25;;
59790;SDS011;47431;51.640;5.554;2022-08-19T10:08:58;56.90;;;36.35;;
59790;SDS011;47431;51.640;5.554;2022-08-19T10:11:24;66.50;;;37.00;;
59790;SDS011;47431;51.640;5.554;2022-08-19T10:13:49;51.35;;;36.88;;
59790;SDS011;47431;51.640;5.554;2022-08-19T10:16:16;94.18;;;40.30;;
59790;SDS011;47431;51.640;5.554;2022-08-19T10:18:43;60.75;;;36.53;;
59790;SDS011;47431;51.640;5.554;2022-08-19T10:21:11;76.13;;;40.05;;
59790;SDS011;47431;51.640;5.554;2022-08-19T10:23:37;56.13;;;37.65;;
59790;SDS011;47431;51.640;5.554;2022-08-19T10:26:03;64.53;;;37.78;;
59790;SDS011;47431;51.640;5.554;2022-08-19T10:28:30;105.63;;;36.58;;
59790;SDS011;47431;51.640;5.554;2022-08-19T10:30:55;47.87;;;35.60;;
59790;SDS011;47431;51.640;5.554;2022-08-19T10:33:20;49.85;;;37.30;;
59790;SDS011;47431;51.640;5.554;2022-08-19T10:35:45;40.13;;;35.00;;
59790;SDS011;47431;51.640;5.554;2022-08-19T10:38:11;78.22;;;40.15;;
59790;SDS011;47431;51.640;5.554;2022-08-19T10:40:36;101.20;;;41.38;;
59790;SDS011;47431;51.640;5.554;2022-08-19T10:43:02;60.77;;;41.43;;
59790;SDS011;47431;51.640;5.554;2022-08-19T10:45:27;88.70;;;40.07;;
59790;SDS011;47431;51.640;5.554;2022-08-19T10:47:52;57.78;;;40.78;;
59790;SDS011;47431;51.640;5.554;2022-08-19T10:50:18;47.67;;;39.03;;
59790;SDS011;47431;51.640;5.554;2022-08-19T10:53:05;57.88;;;38.85;;
59790;SDS011;47431;51.640;5.554;2022-08-19T10:55:33;45.70;;;36.47;;
59790;SDS011;47431;51.640;5.554;2022-08-19T10:58:18;37.80;;;31.27;;
59790;SDS011;47431;51.640;5.554;2022-08-19T11:00:57;37.30;;;31.90;;
59790;SDS011;47431;51.640;5.554;2022-08-19T11:03:23;42.20;;;34.80;;
59790;SDS011;47431;51.640;5.554;2022-08-19T11:05:59;68.40;;;35.97;;
59790;SDS011;47431;51.640;5.554;2022-08-19T11:08:24;41.03;;;34.35;;
59790;SDS011;47431;51.640;5.554;2022-08-19T11:10:52;54.60;;;36.85;;
59790;SDS011;47431;51.640;5.554;2022-08-19T11:13:20;51.72;;;36.17;;
59790;SDS011;47431;51.640;5.554;2022-08-19T11:15:45;57.13;;;34.10;;
59790;SDS011;47431;51.640;5.554;2022-08-19T11:18:12;39.70;;;32.70;;
59790;SDS011;47431;51.640;5.554;2022-08-19T11:20:37;51.95;;;34.22;;
59790;SDS011;47431;51.640;5.554;2022-08-19T11:23:02;64.60;;;34.17;;
59790;SDS011;47431;51.640;5.554;2022-08-19T11:25:27;56.08;;;36.17;;
59790;SDS011;47431;51.640;5.554;2022-08-19T11:27:53;49.03;;;35.63;;
59790;SDS011;47431;51.640;5.554;2022-08-19T11:30:18;67.50;;;35.65;;
59790;SDS011;47431;51.640;5.554;2022-08-19T11:32:43;50.97;;;33.63;;
59790;SDS011;47431;51.640;5.554;2022-08-19T11:35:08;53.63;;;33.42;;
59790;SDS011;47431;51.640;5.554;2022-08-19T11:37:35;37.55;;;32.25;;
59790;SDS011;47431;51.640;5.554;2022-08-19T11:40:02;53.00;;;33.80;;
59790;SDS011;47431;51.640;5.554;2022-08-19T11:42:28;58.45;;;30.90;;
59790;SDS011;47431;51.640;5.554;2022-08-19T11:45:12;37.28;;;25.83;;
59790;SDS011;47431;51.640;5.554;2022-08-19T11:47:38;38.83;;;28.48;;
59790;SDS011;47431;51.640;5.554;2022-08-19T11:50:04;40.60;;;30.07;;
59790;SDS011;47431;51.640;5.554;2022-08-19T11:52:30;32.25;;;28.50;;
59790;SDS011;47431;51.640;5.554;2022-08-19T11:54:56;47.72;;;27.45;;
59790;SDS011;47431;51.640;5.554;2022-08-19T11:57:21;29.87;;;24.47;;
59790;SDS011;47431;51.640;5.554;2022-08-19T11:59:50;26.67;;;23.45;;
59790;SDS011;47431;51.640;5.554;2022-08-19T12:02:16;32.10;;;27.38;;
59790;SDS011;47431;51.640;5.554;2022-08-19T12:04:41;35.35;;;21.42;;
59790;SDS011;47431;51.640;5.554;2022-08-19T12:07:06;25.33;;;18.73;;
59790;SDS011;47431;51.640;5.554;2022-08-19T12:09:31;39.05;;;23.00;;
59790;SDS011;47431;51.640;5.554;2022-08-19T12:11:59;27.17;;;23.30;;
59790;SDS011;47431;51.640;5.554;2022-08-19T12:14:24;32.25;;;22.85;;
59790;SDS011;47431;51.640;5.554;2022-08-19T12:16:50;36.17;;;24.03;;
59790;SDS011;47431;51.640;5.554;2022-08-19T12:19:15;31.30;;;22.90;;
59790;SDS011;47431;51.640;5.554;2022-08-19T12:21:40;26.27;;;22.70;;
59790;SDS011;47431;51.640;5.554;2022-08-19T12:24:06;33.50;;;23.13;;
59790;SDS011;47431;51.640;5.554;2022-08-19T12:26:31;27.17;;;24.08;;
59790;SDS011;47431;51.640;5.554;2022-08-19T12:28:57;25.00;;;21.77;;
59790;SDS011;47431;51.640;5.554;2022-08-19T12:31:24;28.85;;;23.73;;
59790;SDS011;47431;51.640;5.554;2022-08-19T12:33:49;25.80;;;21.88;;
59790;SDS011;47431;51.640;5.554;2022-08-19T12:36:17;30.88;;;25.15;;
59790;SDS011;47431;51.640;5.554;2022-08-19T12:38:42;28.95;;;25.10;;
59790;SDS011;47431;51.640;5.554;2022-08-19T12:41:09;38.92;;;24.83;;
59790;SDS011;47431;51.640;5.554;2022-08-19T12:43:35;27.08;;;20.23;;
59790;SDS011;47431;51.640;5.554;2022-08-19T12:46:01;27.10;;;22.70;;
59790;SDS011;47431;51.640;5.554;2022-08-19T12:48:26;48.63;;;25.42;;
59790;SDS011;47431;51.640;5.554;2022-08-19T12:50:52;26.40;;;22.25;;
59790;SDS011;47431;51.640;5.554;2022-08-19T12:53:17;39.33;;;25.85;;
59790;SDS011;47431;51.640;5.554;2022-08-19T12:55:42;28.60;;;23.83;;
59790;SDS011;47431;51.640;5.554;2022-08-19T12:58:08;41.67;;;27.10;;
59790;SDS011;47431;51.640;5.554;2022-08-19T13:00:33;46.50;;;25.67;;
59790;SDS011;47431;51.640;5.554;2022-08-19T13:02:59;29.60;;;23.92;;
59790;SDS011;47431;51.640;5.554;2022-08-19T13:05:25;31.35;;;25.10;;
59790;SDS011;47431;51.640;5.554;2022-08-19T13:07:52;40.28;;;27.20;;
59790;SDS011;47431;51.640;5.554;2022-08-19T13:10:19;37.90;;;25.98;;
59790;SDS011;47431;51.640;5.554;2022-08-19T13:12:46;44.33;;;27.88;;
59790;SDS011;47431;51.640;5.554;2022-08-19T13:15:12;38.65;;;30.38;;
59790;SDS011;47431;51.640;5.554;2022-08-19T13:17:38;60.65;;;31.80;;
59790;SDS011;47431;51.640;5.554;2022-08-19T13:20:04;40.88;;;30.45;;
59790;SDS011;47431;51.640;5.554;2022-08-19T13:22:31;59.03;;;33.60;;
59790;SDS011;47431;51.640;5.554;2022-08-19T13:24:56;40.05;;;30.33;;
59790;SDS011;47431;51.640;5.554;2022-08-19T13:27:21;43.35;;;31.45;;
59790;SDS011;47431;51.640;5.554;2022-08-19T13:29:47;57.42;;;34.55;;
59790;SDS011;47431;51.640;5.554;2022-08-19T13:32:30;56.92;;;31.45;;
59790;SDS011;47431;51.640;5.554;2022-08-19T13:35:15;55.53;;;32.13;;
59790;SDS011;47431;51.640;5.554;2022-08-19T13:37:40;70.30;;;34.22;;
59790;SDS011;47431;51.640;5.554;2022-08-19T13:40:07;40.88;;;30.23;;
59790;SDS011;47431;51.640;5.554;2022-08-19T13:42:37;51.63;;;32.85;;
59790;SDS011;47431;51.640;5.554;2022-08-19T13:45:03;49.58;;;31.90;;
59790;SDS011;47431;51.640;5.554;2022-08-19T13:47:29;57.63;;;33.65;;
59790;SDS011;47431;51.640;5.554;2022-08-19T13:49:54;53.63;;;33.33;;
59790;SDS011;47431;51.640;5.554;2022-08-19T13:52:20;49.88;;;33.50;;
59790;SDS011;47431;51.640;5.554;2022-08-19T13:54:45;95.03;;;37.42;;
59790;SDS011;47431;51.640;5.554;2022-08-19T13:57:10;72.53;;;39.90;;
59790;SDS011;47431;51.640;5.554;2022-08-19T13:59:35;44.50;;;35.00;;
59790;SDS011;47431;51.640;5.554;2022-08-19T14:02:01;71.07;;;37.60;;
59790;SDS011;47431;51.640;5.554;2022-08-19T14:04:26;43.63;;;36.03;;
59790;SDS011;47431;51.640;5.554;2022-08-19T14:06:51;61.83;;;37.03;;
59790;SDS011;47431;51.640;5.554;2022-08-19T14:09:16;40.80;;;33.80;;
59790;SDS011;47431;51.640;5.554;2022-08-19T14:11:42;42.22;;;32.65;;
59790;SDS011;47431;51.640;5.554;2022-08-19T14:14:07;40.13;;;29.80;;
59790;SDS011;47431;51.640;5.554;2022-08-19T14:16:32;35.20;;;26.35;;
59790;SDS011;47431;51.640;5.554;2022-08-19T14:18:57;59.13;;;28.20;;
59790;SDS011;47431;51.640;5.554;2022-08-19T14:21:23;70.47;;;29.45;;
59790;SDS011;47431;51.640;5.554;2022-08-19T14:23:50;33.03;;;26.15;;
59790;SDS011;47431;51.640;5.554;2022-08-19T14:26:16;29.60;;;23.58;;
59790;SDS011;47431;51.640;5.554;2022-08-19T14:28:42;31.20;;;25.40;;
59790;SDS011;47431;51.640;5.554;2022-08-19T14:31:08;32.13;;;24.83;;